createdAt,value
2019-05-25T00:00:06.549Z,49.50
2019-05-25T00:05:10.034Z,49.50
2019-05-25T00:10:13.545Z,49.50
2019-05-25T00:15:16.978Z,49.60
2019-05-25T00:20:20.403Z,49.60
2019-05-25T00:25:23.900Z,49.50
2019-05-25T00:30:27.357Z,49.50
2019-05-25T00:35:30.909Z,49.50
2019-05-25T00:40:34.421Z,49.50
2019-05-25T00:45:37.888Z,49.60
2019-05-25T00:50:41.314Z,49.60
2019-05-25T00:55:44.867Z,49.50
2019-05-25T01:00:48.507Z,49.50
2019-05-25T01:05:51.940Z,49.70
2019-05-25T01:10:55.545Z,49.70
2019-05-25T01:15:59.529Z,49.60
2019-05-25T01:21:03.039Z,49.60
2019-05-25T01:26:06.525Z,49.70
2019-05-25T01:31:10.170Z,50.10
2019-05-25T01:36:15.452Z,49.60
2019-05-25T01:41:18.946Z,50.40
2019-05-25T01:46:22.454Z,49.60
2019-05-25T01:51:26.004Z,49.70
2019-05-25T01:56:29.395Z,50.20
2019-05-25T02:01:32.826Z,49.70
2019-05-25T02:06:36.339Z,49.70
2019-05-25T02:11:39.775Z,49.70
2019-05-25T02:16:43.355Z,49.70
2019-05-25T02:21:46.862Z,49.70
2019-05-25T02:26:50.413Z,49.80
2019-05-25T02:31:53.883Z,49.80
2019-05-25T02:36:57.307Z,49.80
2019-05-25T02:42:00.767Z,49.80
2019-05-25T02:47:04.320Z,50.00
2019-05-25T02:52:07.773Z,50.00
2019-05-25T02:57:11.276Z,50.20
2019-05-25T03:02:14.761Z,50.20
2019-05-25T03:07:18.188Z,50.30
2019-05-25T03:12:21.790Z,50.40
2019-05-25T03:17:25.257Z,50.40
2019-05-25T03:22:28.846Z,50.50
2019-05-25T03:27:32.329Z,50.40
2019-05-25T03:32:35.755Z,50.80
2019-05-25T03:37:39.258Z,50.50
2019-05-25T03:42:42.801Z,50.50
2019-05-25T03:47:46.279Z,50.60
2019-05-25T03:52:49.829Z,50.60
2019-05-25T03:57:53.228Z,50.60
2019-05-25T04:02:56.730Z,50.60
2019-05-25T04:08:00.243Z,50.50
2019-05-25T04:13:03.694Z,50.60
2019-05-25T04:18:07.270Z,50.60
2019-05-25T04:23:10.782Z,50.50
2019-05-25T04:28:14.245Z,50.60
2019-05-25T04:33:17.809Z,50.60
2019-05-25T04:38:21.350Z,50.50
2019-05-25T04:43:24.833Z,50.60
2019-05-25T04:48:28.382Z,50.60
2019-05-25T04:53:31.891Z,51.10
2019-05-25T04:58:35.407Z,50.60
2019-05-25T05:03:38.896Z,50.60
2019-05-25T05:08:42.332Z,50.70
2019-05-25T05:13:45.846Z,50.70
2019-05-25T05:18:49.283Z,50.60
2019-05-25T05:23:52.746Z,50.70
2019-05-25T05:28:56.216Z,50.60
2019-05-25T05:33:59.695Z,50.70
2019-05-25T05:39:06.066Z,50.60
2019-05-25T05:44:09.567Z,50.70
2019-05-25T05:49:13.105Z,50.60
2019-05-25T05:54:17.570Z,50.70
2019-05-25T05:59:21.026Z,51.30
2019-05-25T06:04:24.452Z,50.60
2019-05-25T06:09:27.983Z,51.20
2019-05-25T06:14:31.459Z,50.70
2019-05-25T06:19:35.010Z,50.60
2019-05-25T06:24:38.498Z,50.80
2019-05-25T06:29:42.300Z,52.00
2019-05-25T06:34:45.745Z,51.60
2019-05-25T06:39:49.164Z,51.30
2019-05-25T06:44:52.628Z,51.00
2019-05-25T06:49:56.099Z,50.70
2019-05-25T06:54:59.515Z,50.80
2019-05-25T07:00:05.306Z,51.30
2019-05-25T07:05:09.784Z,51.40
2019-05-25T07:10:13.245Z,51.60
2019-05-25T07:15:16.845Z,51.90
2019-05-25T07:20:20.347Z,51.20
2019-05-25T07:25:23.879Z,51.50
2019-05-25T07:30:27.494Z,51.30
2019-05-25T07:35:31.068Z,50.30
2019-05-25T07:40:34.585Z,50.70
2019-05-25T07:45:38.096Z,50.40
2019-05-25T07:50:41.611Z,50.20
2019-05-25T07:55:45.129Z,50.00
2019-05-25T08:00:48.689Z,50.10
2019-05-25T08:05:52.298Z,50.60
2019-05-25T08:10:57.656Z,50.40
2019-05-25T08:16:00.953Z,50.10
2019-05-25T08:21:05.418Z,50.10
2019-05-25T08:26:09.005Z,50.20
2019-05-25T08:31:12.431Z,50.50
2019-05-25T08:36:16.005Z,50.70
2019-05-25T08:41:19.511Z,50.10
2019-05-25T08:46:22.979Z,50.10
2019-05-25T08:51:26.650Z,50.70
2019-05-25T08:56:30.111Z,50.70
2019-05-25T09:01:33.617Z,51.40
2019-05-25T09:06:37.118Z,51.20
2019-05-25T09:11:40.630Z,50.90
2019-05-25T09:16:44.146Z,49.70
2019-05-25T09:22:01.523Z,49.70
2019-05-25T09:26:52.742Z,49.70
2019-05-25T09:31:56.296Z,49.70
2019-05-25T09:36:59.803Z,49.60
2019-05-25T09:42:03.330Z,49.70
2019-05-25T09:47:06.846Z,49.60
2019-05-25T09:52:10.346Z,49.40
2019-05-25T09:57:13.919Z,49.50
2019-05-25T10:02:17.424Z,49.40
2019-05-25T10:07:20.940Z,49.50
2019-05-25T10:12:24.486Z,49.50
2019-05-25T10:17:27.966Z,49.50
2019-05-25T10:22:31.501Z,49.30
2019-05-25T10:27:35.002Z,50.00
2019-05-25T10:32:38.513Z,49.40
2019-05-25T10:37:42.057Z,49.50
2019-05-25T10:42:45.533Z,49.50
2019-05-25T10:47:48.992Z,49.50
2019-05-25T10:52:52.495Z,49.50
2019-05-25T10:57:55.911Z,49.50
2019-05-25T11:02:59.446Z,49.60
2019-05-25T11:08:02.914Z,49.50
2019-05-25T11:13:06.414Z,49.50
2019-05-25T11:18:09.874Z,49.50
2019-05-25T11:23:13.358Z,49.50
2019-05-25T11:28:16.771Z,49.30
2019-05-25T11:33:20.274Z,49.40
2019-05-25T11:38:23.711Z,49.30
2019-05-25T11:43:27.196Z,49.40
2019-05-25T11:48:32.385Z,49.30
2019-05-25T11:53:35.913Z,49.30
2019-05-25T11:58:47.545Z,49.20
2019-05-25T12:03:44.557Z,49.20
2019-05-25T12:08:47.957Z,49.30
2019-05-25T12:13:51.502Z,49.40
2019-05-25T12:18:54.984Z,49.30
2019-05-25T12:23:58.515Z,49.30
2019-05-25T12:29:02.034Z,49.30
2019-05-25T12:34:05.516Z,49.30
2019-05-25T12:39:08.984Z,49.30
2019-05-25T12:44:12.434Z,49.30
2019-05-25T12:49:15.895Z,49.30
2019-05-25T12:54:19.363Z,49.30
2019-05-25T12:59:22.874Z,49.30
2019-05-25T13:04:26.345Z,49.30
2019-05-25T13:09:29.938Z,49.90
2019-05-25T13:14:33.371Z,49.30
2019-05-25T13:19:36.942Z,49.30
2019-05-25T13:24:40.487Z,49.30
2019-05-25T13:29:43.957Z,49.40
2019-05-25T13:34:47.478Z,49.30
2019-05-25T13:39:50.919Z,49.60
2019-05-25T13:44:54.410Z,49.80
2019-05-25T13:49:57.913Z,50.20
2019-05-25T13:55:01.368Z,50.20
2019-05-25T14:00:07.248Z,50.20
2019-05-25T14:05:11.326Z,50.10
2019-05-25T14:10:14.776Z,50.30
2019-05-25T14:15:18.587Z,50.40
2019-05-25T14:20:22.211Z,50.50
2019-05-25T14:25:25.819Z,50.50
2019-05-25T14:30:29.333Z,50.50
2019-05-25T14:35:32.961Z,50.50
2019-05-25T14:40:36.642Z,50.40
2019-05-25T14:45:40.361Z,50.30
2019-05-25T14:50:44.235Z,50.20
2019-05-25T14:55:48.110Z,50.80
2019-05-25T15:00:51.645Z,50.50
2019-05-25T15:05:55.710Z,50.40
2019-05-25T15:10:59.168Z,50.00
2019-05-25T15:16:03.333Z,49.80
2019-05-25T15:21:06.908Z,49.90
2019-05-25T15:26:10.444Z,49.90
2019-05-25T15:31:14.288Z,50.00
2019-05-25T15:36:17.882Z,50.00
2019-05-25T15:41:21.391Z,50.20
2019-05-25T15:46:25.242Z,50.10
2019-05-25T15:51:28.970Z,50.10
2019-05-25T15:56:32.876Z,50.40
2019-05-25T16:01:37.642Z,50.50
2019-05-25T16:06:41.235Z,50.70
2019-05-25T16:11:44.699Z,50.60
2019-05-25T16:16:48.292Z,50.60
2019-05-25T16:21:51.876Z,50.60
2019-05-25T16:26:55.394Z,50.60
2019-05-25T16:31:58.911Z,50.90
2019-05-25T16:37:02.571Z,50.80
2019-05-25T16:42:06.272Z,50.40
2019-05-25T16:47:09.752Z,49.50
2019-05-25T16:52:13.183Z,48.80
2019-05-25T16:57:16.631Z,48.80
2019-05-25T17:02:20.604Z,49.70
2019-05-25T17:07:24.256Z,49.60
2019-05-25T17:12:27.743Z,49.30
2019-05-25T17:17:31.278Z,48.80
2019-05-25T17:22:34.974Z,48.90
2019-05-25T17:27:38.479Z,49.50
2019-05-25T17:32:41.919Z,49.00
2019-05-25T17:37:45.385Z,49.20
2019-05-25T17:42:48.922Z,49.30
2019-05-25T17:47:52.466Z,49.40
2019-05-25T17:52:55.953Z,49.50
2019-05-25T17:57:59.473Z,49.70
2019-05-25T18:03:03.009Z,49.80
2019-05-25T18:08:06.714Z,50.10
2019-05-25T18:13:10.254Z,50.40
2019-05-25T18:18:13.830Z,50.50
2019-05-25T18:23:17.291Z,50.40
2019-05-25T18:28:20.884Z,50.40
2019-05-25T18:33:24.375Z,50.40
2019-05-25T18:38:27.880Z,50.40
2019-05-25T18:43:31.532Z,50.30
2019-05-25T18:48:35.044Z,50.40
2019-05-25T18:53:38.523Z,50.50
2019-05-25T18:58:42.072Z,50.60
2019-05-25T19:03:45.473Z,50.60
2019-05-25T19:08:49.004Z,50.70
2019-05-25T19:13:52.486Z,50.60
2019-05-25T19:18:55.966Z,50.90
2019-05-25T19:23:59.516Z,51.00
2019-05-25T19:29:05.481Z,50.90
2019-05-25T19:34:08.137Z,51.00
2019-05-25T19:39:11.720Z,51.00
2019-05-25T19:44:15.124Z,50.90
2019-05-25T19:49:18.572Z,51.00
2019-05-25T19:54:22.056Z,50.80
2019-05-25T19:59:25.454Z,50.90
2019-05-25T20:04:28.985Z,51.00
2019-05-25T20:09:32.391Z,50.90
2019-05-25T20:14:35.906Z,50.90
2019-05-25T20:19:39.393Z,50.80
2019-05-25T20:24:44.025Z,50.70
2019-05-25T20:29:47.649Z,50.80
2019-05-25T20:34:51.298Z,50.90
2019-05-25T20:39:54.914Z,50.90
2019-05-25T20:44:58.528Z,51.00
2019-05-25T20:50:01.975Z,51.10
2019-05-25T20:55:06.655Z,51.00
2019-05-25T21:00:10.168Z,51.10
2019-05-25T21:05:13.595Z,51.70
2019-05-25T21:10:17.227Z,51.20
2019-05-25T21:15:20.738Z,51.10
2019-05-25T21:20:24.215Z,51.20
2019-05-25T21:25:27.737Z,51.30
2019-05-25T21:30:31.164Z,51.10
2019-05-25T21:35:34.589Z,51.20
2019-05-25T21:40:38.080Z,51.10
2019-05-25T21:45:41.519Z,51.20
2019-05-25T21:50:45.000Z,51.20
2019-05-25T21:55:48.482Z,51.10
2019-05-25T22:00:51.994Z,51.20
2019-05-25T22:05:55.510Z,51.30
2019-05-25T22:10:59.017Z,51.30
2019-05-25T22:16:02.443Z,51.30
2019-05-25T22:21:05.885Z,51.30
2019-05-25T22:26:09.456Z,51.20
2019-05-25T22:31:12.970Z,51.20
2019-05-25T22:36:16.479Z,51.30
2019-05-25T22:41:20.253Z,51.30
2019-05-25T22:46:23.919Z,51.60
2019-05-25T22:51:27.485Z,51.20
2019-05-25T22:56:30.954Z,51.30
2019-05-25T23:01:34.402Z,51.20
2019-05-25T23:06:37.876Z,51.20
2019-05-25T23:11:41.418Z,51.10
2019-05-25T23:16:44.903Z,51.20
2019-05-25T23:21:48.448Z,51.20
2019-05-25T23:26:51.926Z,51.80
2019-05-25T23:31:55.451Z,51.30
2019-05-25T23:37:13.533Z,51.30
2019-05-25T23:42:04.046Z,51.20
2019-05-25T23:47:07.554Z,51.20
2019-05-25T23:52:11.036Z,51.20
2019-05-25T23:57:14.492Z,51.30
